sensor_id;sensor_type;location;lat;lon;timestamp;P1;durP1;ratioP1;P2;durP2;ratioP2
11590;SDS011;5851;54.050;9.974;2023-08-01T00:00:53;4.57;;;3.80;;
11590;SDS011;5851;54.050;9.974;2023-08-01T00:03:21;3.60;;;3.30;;
11590;SDS011;5851;54.050;9.974;2023-08-01T00:05:48;3.50;;;3.20;;
11590;SDS011;5851;54.050;9.974;2023-08-01T00:08:15;4.05;;;3.63;;
11590;SDS011;5851;54.050;9.974;2023-08-01T00:10:42;4.13;;;3.73;;
11590;SDS011;5851;54.050;9.974;2023-08-01T00:13:08;3.30;;;3.00;;
11590;SDS011;5851;54.050;9.974;2023-08-01T00:15:37;3.97;;;3.50;;
11590;SDS011;5851;54.050;9.974;2023-08-01T00:18:04;3.55;;;3.25;;
11590;SDS011;5851;54.050;9.974;2023-08-01T00:20:31;3.43;;;3.13;;
11590;SDS011;5851;54.050;9.974;2023-08-01T00:22:58;3.60;;;3.07;;
11590;SDS011;5851;54.050;9.974;2023-08-01T00:25:25;3.85;;;3.35;;
11590;SDS011;5851;54.050;9.974;2023-08-01T00:27:52;4.32;;;3.13;;
11590;SDS011;5851;54.050;9.974;2023-08-01T00:30:19;4.22;;;3.33;;
11590;SDS011;5851;54.050;9.974;2023-08-01T00:32:47;3.42;;;3.13;;
11590;SDS011;5851;54.050;9.974;2023-08-01T00:35:14;3.58;;;2.90;;
11590;SDS011;5851;54.050;9.974;2023-08-01T00:37:42;4.93;;;2.97;;
11590;SDS011;5851;54.050;9.974;2023-08-01T00:40:09;4.22;;;3.20;;
11590;SDS011;5851;54.050;9.974;2023-08-01T00:42:36;3.10;;;2.80;;
11590;SDS011;5851;54.050;9.974;2023-08-01T00:45:04;3.20;;;2.90;;
11590;SDS011;5851;54.050;9.974;2023-08-01T00:47:32;5.07;;;3.10;;
11590;SDS011;5851;54.050;9.974;2023-08-01T00:50:00;3.83;;;3.30;;
11590;SDS011;5851;54.050;9.974;2023-08-01T00:52:28;3.63;;;3.20;;
11590;SDS011;5851;54.050;9.974;2023-08-01T00:54:55;3.95;;;3.65;;
11590;SDS011;5851;54.050;9.974;2023-08-01T00:57:22;3.90;;;3.60;;
11590;SDS011;5851;54.050;9.974;2023-08-01T00:59:49;3.90;;;3.47;;
11590;SDS011;5851;54.050;9.974;2023-08-01T01:02:16;5.37;;;3.70;;
11590;SDS011;5851;54.050;9.974;2023-08-01T01:04:43;5.20;;;4.00;;
11590;SDS011;5851;54.050;9.974;2023-08-01T01:07:11;4.37;;;3.67;;
11590;SDS011;5851;54.050;9.974;2023-08-01T01:09:38;4.33;;;3.80;;
11590;SDS011;5851;54.050;9.974;2023-08-01T01:12:06;4.10;;;3.70;;
11590;SDS011;5851;54.050;9.974;2023-08-01T01:14:33;3.83;;;3.43;;
11590;SDS011;5851;54.050;9.974;2023-08-01T01:17:01;4.73;;;3.97;;
11590;SDS011;5851;54.050;9.974;2023-08-01T01:19:28;4.35;;;3.90;;
11590;SDS011;5851;54.050;9.974;2023-08-01T01:21:56;6.15;;;4.20;;
11590;SDS011;5851;54.050;9.974;2023-08-01T01:24:25;4.13;;;3.73;;
11590;SDS011;5851;54.050;9.974;2023-08-01T01:26:53;4.73;;;3.90;;
11590;SDS011;5851;54.050;9.974;2023-08-01T01:29:21;4.50;;;4.10;;
11590;SDS011;5851;54.050;9.974;2023-08-01T01:31:49;4.40;;;4.00;;
11590;SDS011;5851;54.050;9.974;2023-08-01T01:34:17;4.33;;;3.93;;
11590;SDS011;5851;54.050;9.974;2023-08-01T01:36:44;4.53;;;3.90;;
11590;SDS011;5851;54.050;9.974;2023-08-01T01:39:12;5.17;;;4.30;;
11590;SDS011;5851;54.050;9.974;2023-08-01T01:41:39;4.53;;;4.13;;
11590;SDS011;5851;54.050;9.974;2023-08-01T01:44:06;4.13;;;3.70;;
11590;SDS011;5851;54.050;9.974;2023-08-01T01:46:32;3.87;;;3.47;;
11590;SDS011;5851;54.050;9.974;2023-08-01T01:48:59;4.23;;;3.47;;
11590;SDS011;5851;54.050;9.974;2023-08-01T01:51:26;6.03;;;3.60;;
11590;SDS011;5851;54.050;9.974;2023-08-01T01:53:54;4.00;;;3.37;;
11590;SDS011;5851;54.050;9.974;2023-08-01T01:56:22;4.27;;;3.50;;
11590;SDS011;5851;54.050;9.974;2023-08-01T01:58:49;3.97;;;3.57;;
11590;SDS011;5851;54.050;9.974;2023-08-01T02:01:16;4.50;;;3.60;;
11590;SDS011;5851;54.050;9.974;2023-08-01T02:03:43;4.97;;;3.23;;
11590;SDS011;5851;54.050;9.974;2023-08-01T02:06:10;3.63;;;3.30;;
11590;SDS011;5851;54.050;9.974;2023-08-01T02:08:36;4.60;;;3.30;;
11590;SDS011;5851;54.050;9.974;2023-08-01T02:11:03;4.30;;;3.50;;
11590;SDS011;5851;54.050;9.974;2023-08-01T02:13:32;3.47;;;3.17;;
11590;SDS011;5851;54.050;9.974;2023-08-01T02:15:59;3.57;;;3.27;;
11590;SDS011;5851;54.050;9.974;2023-08-01T02:18:26;4.57;;;3.30;;
11590;SDS011;5851;54.050;9.974;2023-08-01T02:20:53;3.50;;;3.13;;
11590;SDS011;5851;54.050;9.974;2023-08-01T02:23:19;3.80;;;3.40;;
11590;SDS011;5851;54.050;9.974;2023-08-01T02:25:46;4.13;;;3.20;;
11590;SDS011;5851;54.050;9.974;2023-08-01T02:28:13;4.67;;;3.27;;
11590;SDS011;5851;54.050;9.974;2023-08-01T02:30:41;3.80;;;3.43;;
11590;SDS011;5851;54.050;9.974;2023-08-01T02:33:08;3.93;;;3.53;;
11590;SDS011;5851;54.050;9.974;2023-08-01T02:35:35;3.95;;;3.45;;
11590;SDS011;5851;54.050;9.974;2023-08-01T02:38:03;4.70;;;4.00;;
11590;SDS011;5851;54.050;9.974;2023-08-01T02:40:30;4.20;;;3.80;;
11590;SDS011;5851;54.050;9.974;2023-08-01T02:42:57;6.53;;;3.80;;
11590;SDS011;5851;54.050;9.974;2023-08-01T02:45:24;4.87;;;4.47;;
11590;SDS011;5851;54.050;9.974;2023-08-01T02:47:52;6.03;;;4.33;;
11590;SDS011;5851;54.050;9.974;2023-08-01T02:50:19;6.77;;;4.17;;
11590;SDS011;5851;54.050;9.974;2023-08-01T02:52:46;6.57;;;4.90;;
11590;SDS011;5851;54.050;9.974;2023-08-01T02:55:13;6.10;;;4.87;;
11590;SDS011;5851;54.050;9.974;2023-08-01T02:57:40;6.60;;;4.90;;
11590;SDS011;5851;54.050;9.974;2023-08-01T03:00:07;5.90;;;5.40;;
11590;SDS011;5851;54.050;9.974;2023-08-01T03:02:37;7.33;;;5.73;;
11590;SDS011;5851;54.050;9.974;2023-08-01T03:05:07;5.83;;;5.33;;
11590;SDS011;5851;54.050;9.974;2023-08-01T03:07:35;5.63;;;5.13;;
11590;SDS011;5851;54.050;9.974;2023-08-01T03:10:02;7.37;;;5.40;;
11590;SDS011;5851;54.050;9.974;2023-08-01T03:12:29;6.83;;;5.53;;
11590;SDS011;5851;54.050;9.974;2023-08-01T03:14:56;6.27;;;5.67;;
11590;SDS011;5851;54.050;9.974;2023-08-01T03:17:23;7.63;;;5.80;;
11590;SDS011;5851;54.050;9.974;2023-08-01T03:19:50;8.23;;;5.93;;
11590;SDS011;5851;54.050;9.974;2023-08-01T03:22:18;7.73;;;6.80;;
11590;SDS011;5851;54.050;9.974;2023-08-01T03:24:45;9.13;;;6.80;;
11590;SDS011;5851;54.050;9.974;2023-08-01T03:27:12;7.27;;;6.50;;
11590;SDS011;5851;54.050;9.974;2023-08-01T03:29:39;8.67;;;6.57;;
11590;SDS011;5851;54.050;9.974;2023-08-01T03:32:06;8.30;;;6.93;;
11590;SDS011;5851;54.050;9.974;2023-08-01T03:34:33;7.73;;;6.67;;
11590;SDS011;5851;54.050;9.974;2023-08-01T03:37:00;8.20;;;7.40;;
11590;SDS011;5851;54.050;9.974;2023-08-01T03:39:28;9.27;;;7.57;;
11590;SDS011;5851;54.050;9.974;2023-08-01T03:41:55;9.82;;;7.07;;
11590;SDS011;5851;54.050;9.974;2023-08-01T03:44:22;10.13;;;7.40;;
11590;SDS011;5851;54.050;9.974;2023-08-01T03:46:49;8.27;;;7.40;;
11590;SDS011;5851;54.050;9.974;2023-08-01T03:49:16;10.43;;;7.43;;
11590;SDS011;5851;54.050;9.974;2023-08-01T03:51:43;10.50;;;7.50;;
11590;SDS011;5851;54.050;9.974;2023-08-01T03:54:10;9.63;;;7.70;;
11590;SDS011;5851;54.050;9.974;2023-08-01T03:56:38;9.20;;;7.93;;
11590;SDS011;5851;54.050;9.974;2023-08-01T03:59:08;7.70;;;6.90;;
11590;SDS011;5851;54.050;9.974;2023-08-01T04:01:35;10.00;;;7.97;;
11590;SDS011;5851;54.050;9.974;2023-08-01T04:04:02;7.90;;;6.40;;
11590;SDS011;5851;54.050;9.974;2023-08-01T04:06:29;8.73;;;6.57;;
11590;SDS011;5851;54.050;9.974;2023-08-01T04:08:55;7.53;;;6.60;;
11590;SDS011;5851;54.050;9.974;2023-08-01T04:11:22;6.60;;;5.90;;
11590;SDS011;5851;54.050;9.974;2023-08-01T04:13:51;7.63;;;6.33;;
11590;SDS011;5851;54.050;9.974;2023-08-01T04:16:18;10.43;;;7.20;;
11590;SDS011;5851;54.050;9.974;2023-08-01T04:18:45;9.60;;;7.80;;
11590;SDS011;5851;54.050;9.974;2023-08-01T04:21:12;9.43;;;7.90;;
11590;SDS011;5851;54.050;9.974;2023-08-01T04:23:40;9.60;;;7.80;;
11590;SDS011;5851;54.050;9.974;2023-08-01T04:26:07;10.03;;;8.20;;
11590;SDS011;5851;54.050;9.974;2023-08-01T04:28:34;9.93;;;8.03;;
11590;SDS011;5851;54.050;9.974;2023-08-01T04:31:02;10.70;;;8.17;;
11590;SDS011;5851;54.050;9.974;2023-08-01T04:33:29;10.70;;;8.27;;
11590;SDS011;5851;54.050;9.974;2023-08-01T04:35:56;8.83;;;7.90;;
11590;SDS011;5851;54.050;9.974;2023-08-01T04:38:23;8.87;;;7.97;;
11590;SDS011;5851;54.050;9.974;2023-08-01T04:40:50;11.32;;;7.47;;
11590;SDS011;5851;54.050;9.974;2023-08-01T04:43:16;12.50;;;9.00;;
11590;SDS011;5851;54.050;9.974;2023-08-01T04:45:43;9.75;;;8.75;;
11590;SDS011;5851;54.050;9.974;2023-08-01T04:48:12;11.17;;;8.17;;
11590;SDS011;5851;54.050;9.974;2023-08-01T04:50:39;8.27;;;7.47;;
11590;SDS011;5851;54.050;9.974;2023-08-01T04:53:06;11.77;;;8.93;;
11590;SDS011;5851;54.050;9.974;2023-08-01T04:55:33;10.93;;;8.23;;
11590;SDS011;5851;54.050;9.974;2023-08-01T04:58:00;10.15;;;7.93;;
11590;SDS011;5851;54.050;9.974;2023-08-01T05:00:27;9.83;;;8.83;;
11590;SDS011;5851;54.050;9.974;2023-08-01T05:02:54;10.00;;;8.00;;
11590;SDS011;5851;54.050;9.974;2023-08-01T05:05:22;10.47;;;7.80;;
11590;SDS011;5851;54.050;9.974;2023-08-01T05:07:49;12.30;;;8.60;;
11590;SDS011;5851;54.050;9.974;2023-08-01T05:10:16;11.53;;;8.03;;
11590;SDS011;5851;54.050;9.974;2023-08-01T05:12:43;10.00;;;8.13;;
11590;SDS011;5851;54.050;9.974;2023-08-01T05:15:09;11.73;;;8.00;;
11590;SDS011;5851;54.050;9.974;2023-08-01T05:17:38;10.33;;;7.53;;
11590;SDS011;5851;54.050;9.974;2023-08-01T05:20:05;12.93;;;8.85;;
11590;SDS011;5851;54.050;9.974;2023-08-01T05:22:34;14.10;;;12.60;;
11590;SDS011;5851;54.050;9.974;2023-08-01T05:25:01;13.35;;;9.50;;
11590;SDS011;5851;54.050;9.974;2023-08-01T05:27:29;10.38;;;8.20;;
11590;SDS011;5851;54.050;9.974;2023-08-01T05:29:55;11.10;;;7.68;;
11590;SDS011;5851;54.050;9.974;2023-08-01T05:32:22;11.63;;;7.80;;
11590;SDS011;5851;54.050;9.974;2023-08-01T05:34:49;11.05;;;8.30;;
11590;SDS011;5851;54.050;9.974;2023-08-01T05:37:16;10.77;;;7.33;;
11590;SDS011;5851;54.050;9.974;2023-08-01T05:39:44;11.20;;;7.87;;
11590;SDS011;5851;54.050;9.974;2023-08-01T05:42:11;9.87;;;7.53;;
11590;SDS011;5851;54.050;9.974;2023-08-01T05:44:38;13.37;;;8.37;;
11590;SDS011;5851;54.050;9.974;2023-08-01T05:47:05;11.17;;;7.37;;
11590;SDS011;5851;54.050;9.974;2023-08-01T05:49:32;10.47;;;7.57;;
11590;SDS011;5851;54.050;9.974;2023-08-01T05:51:59;12.50;;;8.60;;
11590;SDS011;5851;54.050;9.974;2023-08-01T05:54:26;8.60;;;7.53;;
11590;SDS011;5851;54.050;9.974;2023-08-01T05:56:54;9.73;;;8.00;;
11590;SDS011;5851;54.050;9.974;2023-08-01T05:59:21;10.30;;;7.90;;
11590;SDS011;5851;54.050;9.974;2023-08-01T06:01:48;10.87;;;8.00;;
11590;SDS011;5851;54.050;9.974;2023-08-01T06:04:15;11.45;;;7.97;;
11590;SDS011;5851;54.050;9.974;2023-08-01T06:06:42;14.13;;;8.03;;
11590;SDS011;5851;54.050;9.974;2023-08-01T06:09:09;10.60;;;7.47;;
11590;SDS011;5851;54.050;9.974;2023-08-01T06:11:35;12.90;;;8.20;;
11590;SDS011;5851;54.050;9.974;2023-08-01T06:14:04;9.68;;;7.18;;
11590;SDS011;5851;54.050;9.974;2023-08-01T06:16:31;9.93;;;7.13;;
11590;SDS011;5851;54.050;9.974;2023-08-01T06:18:57;8.67;;;6.60;;
11590;SDS011;5851;54.050;9.974;2023-08-01T06:21:24;9.90;;;7.03;;
11590;SDS011;5851;54.050;9.974;2023-08-01T06:23:52;9.57;;;6.80;;
11590;SDS011;5851;54.050;9.974;2023-08-01T06:26:19;9.43;;;6.23;;
11590;SDS011;5851;54.050;9.974;2023-08-01T06:28:46;10.17;;;6.67;;
11590;SDS011;5851;54.050;9.974;2023-08-01T06:31:14;10.80;;;7.30;;
11590;SDS011;5851;54.050;9.974;2023-08-01T06:33:41;10.77;;;6.83;;
11590;SDS011;5851;54.050;9.974;2023-08-01T06:36:08;7.40;;;6.07;;
11590;SDS011;5851;54.050;9.974;2023-08-01T06:38:34;9.57;;;6.43;;
11590;SDS011;5851;54.050;9.974;2023-08-01T06:41:01;9.07;;;6.10;;
11590;SDS011;5851;54.050;9.974;2023-08-01T06:43:28;7.90;;;6.03;;
11590;SDS011;5851;54.050;9.974;2023-08-01T06:45:55;8.63;;;6.00;;
11590;SDS011;5851;54.050;9.974;2023-08-01T06:48:23;6.53;;;5.88;;
11590;SDS011;5851;54.050;9.974;2023-08-01T06:50:50;8.13;;;5.83;;
11590;SDS011;5851;54.050;9.974;2023-08-01T06:53:18;8.17;;;5.43;;
11590;SDS011;5851;54.050;9.974;2023-08-01T06:55:45;8.40;;;6.13;;
11590;SDS011;5851;54.050;9.974;2023-08-01T06:58:11;8.20;;;5.13;;
11590;SDS011;5851;54.050;9.974;2023-08-01T07:00:38;8.23;;;5.90;;
11590;SDS011;5851;54.050;9.974;2023-08-01T07:03:05;6.80;;;5.57;;
11590;SDS011;5851;54.050;9.974;2023-08-01T07:05:34;7.83;;;5.23;;
11590;SDS011;5851;54.050;9.974;2023-08-01T07:08:00;8.97;;;5.50;;
11590;SDS011;5851;54.050;9.974;2023-08-01T07:10:27;5.53;;;4.90;;
11590;SDS011;5851;54.050;9.974;2023-08-01T07:12:54;6.72;;;5.25;;
11590;SDS011;5851;54.050;9.974;2023-08-01T07:15:21;6.40;;;4.47;;
11590;SDS011;5851;54.050;9.974;2023-08-01T07:17:48;6.57;;;4.97;;
11590;SDS011;5851;54.050;9.974;2023-08-01T07:20:15;6.82;;;4.97;;
11590;SDS011;5851;54.050;9.974;2023-08-01T07:22:43;7.90;;;5.60;;
11590;SDS011;5851;54.050;9.974;2023-08-01T07:25:10;6.50;;;4.67;;
11590;SDS011;5851;54.050;9.974;2023-08-01T07:27:36;8.40;;;5.30;;
11590;SDS011;5851;54.050;9.974;2023-08-01T07:30:04;10.37;;;4.97;;
11590;SDS011;5851;54.050;9.974;2023-08-01T07:32:31;5.43;;;4.17;;
11590;SDS011;5851;54.050;9.974;2023-08-01T07:34:58;4.03;;;3.00;;
11590;SDS011;5851;54.050;9.974;2023-08-01T07:37:25;2.80;;;2.30;;
11590;SDS011;5851;54.050;9.974;2023-08-01T07:39:55;3.17;;;2.40;;
11590;SDS011;5851;54.050;9.974;2023-08-01T07:42:22;5.10;;;2.70;;
11590;SDS011;5851;54.050;9.974;2023-08-01T07:44:49;3.47;;;2.40;;
11590;SDS011;5851;54.050;9.974;2023-08-01T07:47:16;3.37;;;2.30;;
11590;SDS011;5851;54.050;9.974;2023-08-01T07:49:43;3.03;;;2.30;;
11590;SDS011;5851;54.050;9.974;2023-08-01T07:52:10;4.40;;;2.47;;
11590;SDS011;5851;54.050;9.974;2023-08-01T07:54:37;3.40;;;2.40;;
11590;SDS011;5851;54.050;9.974;2023-08-01T07:57:05;4.17;;;2.73;;
11590;SDS011;5851;54.050;9.974;2023-08-01T07:59:32;3.43;;;2.47;;
11590;SDS011;5851;54.050;9.974;2023-08-01T08:01:59;3.93;;;2.50;;
11590;SDS011;5851;54.050;9.974;2023-08-01T08:04:26;4.60;;;2.57;;
11590;SDS011;5851;54.050;9.974;2023-08-01T08:06:53;4.07;;;2.77;;
11590;SDS011;5851;54.050;9.974;2023-08-01T08:09:24;7.90;;;2.97;;
11590;SDS011;5851;54.050;9.974;2023-08-01T08:11:51;3.67;;;3.10;;
11590;SDS011;5851;54.050;9.974;2023-08-01T08:14:20;4.67;;;3.07;;
11590;SDS011;5851;54.050;9.974;2023-08-01T08:16:48;3.43;;;2.93;;
11590;SDS011;5851;54.050;9.974;2023-08-01T08:19:15;4.63;;;3.40;;
11590;SDS011;5851;54.050;9.974;2023-08-01T08:21:42;4.13;;;3.37;;
11590;SDS011;5851;54.050;9.974;2023-08-01T08:24:08;6.10;;;3.33;;
11590;SDS011;5851;54.050;9.974;2023-08-01T08:26:36;5.30;;;3.63;;
11590;SDS011;5851;54.050;9.974;2023-08-01T08:29:04;6.73;;;3.97;;
11590;SDS011;5851;54.050;9.974;2023-08-01T08:31:33;6.23;;;3.60;;
11590;SDS011;5851;54.050;9.974;2023-08-01T08:34:00;5.57;;;3.93;;
11590;SDS011;5851;54.050;9.974;2023-08-01T08:36:27;6.63;;;4.10;;
11590;SDS011;5851;54.050;9.974;2023-08-01T08:38:54;7.20;;;3.83;;
11590;SDS011;5851;54.050;9.974;2023-08-01T08:41:22;6.63;;;4.17;;
11590;SDS011;5851;54.050;9.974;2023-08-01T08:43:52;5.67;;;4.30;;
11590;SDS011;5851;54.050;9.974;2023-08-01T08:46:23;6.97;;;4.40;;
11590;SDS011;5851;54.050;9.974;2023-08-01T08:48:56;8.97;;;4.00;;
11590;SDS011;5851;54.050;9.974;2023-08-01T08:51:23;6.70;;;3.70;;
11590;SDS011;5851;54.050;9.974;2023-08-01T08:53:53;5.60;;;4.20;;
11590;SDS011;5851;54.050;9.974;2023-08-01T08:56:20;6.73;;;3.60;;
11590;SDS011;5851;54.050;9.974;2023-08-01T08:58:48;5.20;;;3.17;;
11590;SDS011;5851;54.050;9.974;2023-08-01T09:01:17;5.93;;;3.40;;
11590;SDS011;5851;54.050;9.974;2023-08-01T09:03:44;5.00;;;2.97;;
11590;SDS011;5851;54.050;9.974;2023-08-01T09:06:16;5.95;;;3.20;;
11590;SDS011;5851;54.050;9.974;2023-08-01T09:08:45;8.50;;;4.07;;
11590;SDS011;5851;54.050;9.974;2023-08-01T09:11:17;6.60;;;3.70;;
11590;SDS011;5851;54.050;9.974;2023-08-01T09:13:44;5.40;;;3.30;;
11590;SDS011;5851;54.050;9.974;2023-08-01T09:16:11;5.30;;;3.33;;
11590;SDS011;5851;54.050;9.974;2023-08-01T09:18:46;5.40;;;3.40;;
11590;SDS011;5851;54.050;9.974;2023-08-01T09:21:17;7.20;;;3.10;;
11590;SDS011;5851;54.050;9.974;2023-08-01T09:23:44;4.53;;;3.17;;
11590;SDS011;5851;54.050;9.974;2023-08-01T09:26:14;6.73;;;2.93;;
11590;SDS011;5851;54.050;9.974;2023-08-01T09:28:42;4.87;;;2.70;;
11590;SDS011;5851;54.050;9.974;2023-08-01T09:31:09;6.03;;;3.05;;
11590;SDS011;5851;54.050;9.974;2023-08-01T09:33:38;5.15;;;2.88;;
11590;SDS011;5851;54.050;9.974;2023-08-01T09:36:06;11.50;;;3.50;;
11590;SDS011;5851;54.050;9.974;2023-08-01T09:38:35;4.70;;;3.23;;
11590;SDS011;5851;54.050;9.974;2023-08-01T09:41:03;4.88;;;3.15;;
11590;SDS011;5851;54.050;9.974;2023-08-01T09:43:33;8.02;;;3.33;;
11590;SDS011;5851;54.050;9.974;2023-08-01T09:46:01;4.63;;;3.38;;
11590;SDS011;5851;54.050;9.974;2023-08-01T09:48:29;6.22;;;3.00;;
11590;SDS011;5851;54.050;9.974;2023-08-01T09:51:06;4.88;;;2.75;;
11590;SDS011;5851;54.050;9.974;2023-08-01T09:53:37;4.63;;;2.85;;
11590;SDS011;5851;54.050;9.974;2023-08-01T09:56:14;6.13;;;3.10;;
11590;SDS011;5851;54.050;9.974;2023-08-01T09:58:42;8.70;;;3.88;;
11590;SDS011;5851;54.050;9.974;2023-08-01T10:01:11;8.27;;;3.50;;
11590;SDS011;5851;54.050;9.974;2023-08-01T10:03:40;10.98;;;3.70;;
11590;SDS011;5851;54.050;9.974;2023-08-01T10:06:12;6.63;;;2.63;;
11590;SDS011;5851;54.050;9.974;2023-08-01T10:08:45;4.50;;;2.00;;
11590;SDS011;5851;54.050;9.974;2023-08-01T10:11:14;3.45;;;1.90;;
11590;SDS011;5851;54.050;9.974;2023-08-01T10:13:45;3.23;;;2.20;;
11590;SDS011;5851;54.050;9.974;2023-08-01T10:16:12;5.90;;;2.45;;
11590;SDS011;5851;54.050;9.974;2023-08-01T10:18:40;3.35;;;2.08;;
11590;SDS011;5851;54.050;9.974;2023-08-01T10:21:08;3.42;;;1.90;;
11590;SDS011;5851;54.050;9.974;2023-08-01T10:23:38;5.13;;;2.30;;
11590;SDS011;5851;54.050;9.974;2023-08-01T10:26:07;3.95;;;2.10;;
11590;SDS011;5851;54.050;9.974;2023-08-01T10:28:36;3.47;;;2.00;;
11590;SDS011;5851;54.050;9.974;2023-08-01T10:31:10;4.15;;;2.10;;
11590;SDS011;5851;54.050;9.974;2023-08-01T10:33:38;3.28;;;2.00;;
11590;SDS011;5851;54.050;9.974;2023-08-01T10:36:13;3.33;;;2.20;;
11590;SDS011;5851;54.050;9.974;2023-08-01T10:38:44;4.07;;;2.00;;
11590;SDS011;5851;54.050;9.974;2023-08-01T10:41:20;2.13;;;1.55;;
11590;SDS011;5851;54.050;9.974;2023-08-01T10:43:48;2.90;;;1.67;;
11590;SDS011;5851;54.050;9.974;2023-08-01T10:46:15;2.03;;;1.80;;
11590;SDS011;5851;54.050;9.974;2023-08-01T10:48:51;3.20;;;1.50;;
11590;SDS011;5851;54.050;9.974;2023-08-01T10:51:19;3.37;;;1.70;;
11590;SDS011;5851;54.050;9.974;2023-08-01T10:53:46;5.60;;;1.60;;
11590;SDS011;5851;54.050;9.974;2023-08-01T10:56:16;1.80;;;1.60;;
11590;SDS011;5851;54.050;9.974;2023-08-01T10:58:46;1.77;;;1.43;;
11590;SDS011;5851;54.050;9.974;2023-08-01T11:01:13;3.45;;;1.70;;
11590;SDS011;5851;54.050;9.974;2023-08-01T11:03:40;3.50;;;1.83;;
11590;SDS011;5851;54.050;9.974;2023-08-01T11:06:07;2.00;;;1.80;;
11590;SDS011;5851;54.050;9.974;2023-08-01T11:08:35;1.60;;;1.50;;
11590;SDS011;5851;54.050;9.974;2023-08-01T11:11:03;4.75;;;1.95;;
11590;SDS011;5851;54.050;9.974;2023-08-01T11:13:31;1.63;;;1.50;;
11590;SDS011;5851;54.050;9.974;2023-08-01T11:16:02;2.63;;;1.50;;
11590;SDS011;5851;54.050;9.974;2023-08-01T11:18:30;2.60;;;1.50;;
11590;SDS011;5851;54.050;9.974;2023-08-01T11:20:57;2.67;;;1.70;;
11590;SDS011;5851;54.050;9.974;2023-08-01T11:23:27;3.33;;;1.50;;
11590;SDS011;5851;54.050;9.974;2023-08-01T11:25:55;2.05;;;1.30;;
11590;SDS011;5851;54.050;9.974;2023-08-01T11:28:22;3.83;;;1.50;;
11590;SDS011;5851;54.050;9.974;2023-08-01T11:30:49;3.75;;;1.52;;
11590;SDS011;5851;54.050;9.974;2023-08-01T11:33:18;3.33;;;1.80;;
11590;SDS011;5851;54.050;9.974;2023-08-01T11:35:46;2.33;;;1.65;;
11590;SDS011;5851;54.050;9.974;2023-08-01T11:38:18;3.00;;;1.30;;
11590;SDS011;5851;54.050;9.974;2023-08-01T11:40:47;3.42;;;1.90;;
11590;SDS011;5851;54.050;9.974;2023-08-01T11:43:15;1.83;;;1.52;;
11590;SDS011;5851;54.050;9.974;2023-08-01T11:45:48;1.88;;;1.42;;
11590;SDS011;5851;54.050;9.974;2023-08-01T11:48:17;1.52;;;1.40;;
11590;SDS011;5851;54.050;9.974;2023-08-01T11:50:45;4.60;;;1.77;;
11590;SDS011;5851;54.050;9.974;2023-08-01T11:53:18;3.33;;;1.87;;
11590;SDS011;5851;54.050;9.974;2023-08-01T11:55:45;3.60;;;1.65;;
11590;SDS011;5851;54.050;9.974;2023-08-01T11:58:12;2.20;;;1.50;;
11590;SDS011;5851;54.050;9.974;2023-08-01T12:00:40;2.08;;;1.55;;
11590;SDS011;5851;54.050;9.974;2023-08-01T12:03:08;2.40;;;1.70;;
11590;SDS011;5851;54.050;9.974;2023-08-01T12:05:39;1.98;;;1.77;;
11590;SDS011;5851;54.050;9.974;2023-08-01T12:08:11;2.53;;;1.80;;
11590;SDS011;5851;54.050;9.974;2023-08-01T12:10:39;2.70;;;1.83;;
11590;SDS011;5851;54.050;9.974;2023-08-01T12:13:18;5.00;;;2.10;;
11590;SDS011;5851;54.050;9.974;2023-08-01T12:15:47;3.07;;;1.90;;
11590;SDS011;5851;54.050;9.974;2023-08-01T12:18:21;4.55;;;1.90;;
11590;SDS011;5851;54.050;9.974;2023-08-01T12:20:50;3.03;;;1.80;;
11590;SDS011;5851;54.050;9.974;2023-08-01T12:23:18;1.63;;;1.50;;
11590;SDS011;5851;54.050;9.974;2023-08-01T12:25:45;2.80;;;1.90;;
11590;SDS011;5851;54.050;9.974;2023-08-01T12:28:13;2.97;;;1.75;;
11590;SDS011;5851;54.050;9.974;2023-08-01T12:30:40;3.20;;;1.75;;
11590;SDS011;5851;54.050;9.974;2023-08-01T12:33:08;2.42;;;1.80;;
11590;SDS011;5851;54.050;9.974;2023-08-01T12:35:38;2.75;;;1.70;;
11590;SDS011;5851;54.050;9.974;2023-08-01T12:38:06;4.78;;;1.50;;
11590;SDS011;5851;54.050;9.974;2023-08-01T12:40:34;2.45;;;1.60;;
11590;SDS011;5851;54.050;9.974;2023-08-01T12:43:02;4.35;;;2.00;;
11590;SDS011;5851;54.050;9.974;2023-08-01T12:45:30;2.40;;;1.70;;
11590;SDS011;5851;54.050;9.974;2023-08-01T12:47:57;2.17;;;1.60;;
11590;SDS011;5851;54.050;9.974;2023-08-01T12:50:24;1.58;;;1.38;;
11590;SDS011;5851;54.050;9.974;2023-08-01T12:52:51;1.75;;;1.45;;
11590;SDS011;5851;54.050;9.974;2023-08-01T12:55:19;1.65;;;1.50;;
11590;SDS011;5851;54.050;9.974;2023-08-01T12:57:46;1.48;;;1.33;;
11590;SDS011;5851;54.050;9.974;2023-08-01T13:00:13;2.38;;;1.38;;
11590;SDS011;5851;54.050;9.974;2023-08-01T13:02:41;2.05;;;1.50;;
11590;SDS011;5851;54.050;9.974;2023-08-01T13:05:08;2.60;;;1.70;;
11590;SDS011;5851;54.050;9.974;2023-08-01T13:07:35;1.88;;;1.50;;
11590;SDS011;5851;54.050;9.974;2023-08-01T13:10:02;3.53;;;1.40;;
11590;SDS011;5851;54.050;9.974;2023-08-01T13:12:31;3.00;;;1.23;;
11590;SDS011;5851;54.050;9.974;2023-08-01T13:14:58;2.45;;;1.40;;
11590;SDS011;5851;54.050;9.974;2023-08-01T13:17:25;2.97;;;1.38;;
11590;SDS011;5851;54.050;9.974;2023-08-01T13:19:57;1.92;;;1.20;;
11590;SDS011;5851;54.050;9.974;2023-08-01T13:22:24;1.30;;;1.20;;
11590;SDS011;5851;54.050;9.974;2023-08-01T13:24:51;1.10;;;1.00;;
11590;SDS011;5851;54.050;9.974;2023-08-01T13:27:18;2.58;;;1.20;;
11590;SDS011;5851;54.050;9.974;2023-08-01T13:29:46;2.17;;;1.30;;
11590;SDS011;5851;54.050;9.974;2023-08-01T13:32:16;2.95;;;1.50;;
11590;SDS011;5851;54.050;9.974;2023-08-01T13:34:43;2.22;;;1.42;;
11590;SDS011;5851;54.050;9.974;2023-08-01T13:37:10;3.90;;;1.10;;
11590;SDS011;5851;54.050;9.974;2023-08-01T13:39:39;4.43;;;1.30;;
11590;SDS011;5851;54.050;9.974;2023-08-01T13:42:06;2.55;;;1.40;;
11590;SDS011;5851;54.050;9.974;2023-08-01T13:44:33;1.65;;;1.13;;
11590;SDS011;5851;54.050;9.974;2023-08-01T13:47:02;3.95;;;1.48;;
11590;SDS011;5851;54.050;9.974;2023-08-01T13:49:32;1.20;;;1.10;;
11590;SDS011;5851;54.050;9.974;2023-08-01T13:51:59;1.20;;;1.20;;
11590;SDS011;5851;54.050;9.974;2023-08-01T13:54:26;3.10;;;1.40;;
11590;SDS011;5851;54.050;9.974;2023-08-01T13:56:53;1.67;;;1.20;;
11590;SDS011;5851;54.050;9.974;2023-08-01T13:59:20;2.75;;;1.00;;
11590;SDS011;5851;54.050;9.974;2023-08-01T14:01:47;1.00;;;0.90;;
11590;SDS011;5851;54.050;9.974;2023-08-01T14:04:15;2.20;;;1.20;;
11590;SDS011;5851;54.050;9.974;2023-08-01T14:06:45;1.20;;;1.20;;
11590;SDS011;5851;54.050;9.974;2023-08-01T14:09:12;2.38;;;1.40;;
11590;SDS011;5851;54.050;9.974;2023-08-01T14:11:39;1.50;;;1.40;;
11590;SDS011;5851;54.050;9.974;2023-08-01T14:14:06;1.35;;;1.20;;
11590;SDS011;5851;54.050;9.974;2023-08-01T14:16:33;1.20;;;1.20;;
11590;SDS011;5851;54.050;9.974;2023-08-01T14:19:01;1.20;;;1.17;;
11590;SDS011;5851;54.050;9.974;2023-08-01T14:21:30;2.08;;;1.00;;
11590;SDS011;5851;54.050;9.974;2023-08-01T14:23:57;0.90;;;0.90;;
11590;SDS011;5851;54.050;9.974;2023-08-01T14:26:24;3.67;;;1.23;;
11590;SDS011;5851;54.050;9.974;2023-08-01T14:28:51;2.08;;;1.30;;
11590;SDS011;5851;54.050;9.974;2023-08-01T14:31:18;1.00;;;1.00;;
11590;SDS011;5851;54.050;9.974;2023-08-01T14:33:44;1.20;;;1.05;;
11590;SDS011;5851;54.050;9.974;2023-08-01T14:36:11;1.75;;;1.20;;
11590;SDS011;5851;54.050;9.974;2023-08-01T14:38:40;1.23;;;1.10;;
11590;SDS011;5851;54.050;9.974;2023-08-01T14:41:07;1.05;;;1.00;;
11590;SDS011;5851;54.050;9.974;2023-08-01T14:43:34;0.95;;;0.82;;
11590;SDS011;5851;54.050;9.974;2023-08-01T14:46:00;0.90;;;0.85;;
11590;SDS011;5851;54.050;9.974;2023-08-01T14:48:27;2.70;;;1.25;;
11590;SDS011;5851;54.050;9.974;2023-08-01T14:50:54;3.45;;;1.17;;
11590;SDS011;5851;54.050;9.974;2023-08-01T14:53:21;1.83;;;1.20;;
11590;SDS011;5851;54.050;9.974;2023-08-01T14:55:56;1.67;;;1.23;;
11590;SDS011;5851;54.050;9.974;2023-08-01T14:58:24;1.60;;;1.10;;
11590;SDS011;5851;54.050;9.974;2023-08-01T15:00:51;1.80;;;1.10;;
11590;SDS011;5851;54.050;9.974;2023-08-01T15:03:18;4.20;;;1.55;;